Time;durP1;ratioP1;P1;durP2;ratioP2;P2;SDS_P1;SDS_P2;PMS_P1;PMS_P2;Temp;Humidity;BMP_temperature;BMP_pressure;BME280_temperature;BME280_humidity;BME280_pressure;Samples;Min_cycle;Max_cycle;Signal;HPM_P1;HPM_P2
2022/08/31 00:05:39;;;;;;;0.10;0.00;;;26.40;83.60;;;;;;4914788;29;20083;-76
2022/08/31 00:08:07;;;;;;;0.08;0.00;;;26.50;83.10;;;;;;4913169;29;20039;-74
2022/08/31 00:10:37;;;;;;;0.20;0.00;;;26.30;84.20;;;;;;4912061;29;20128;-73
2022/08/31 00:13:05;;;;;;;0.17;0.10;;;26.00;83.30;;;;;;4909854;29;20102;-74
2022/08/31 00:15:32;;;;;;;0.40;0.00;;;25.60;82.80;;;;;;4925400;29;20047;-73
2022/08/31 00:18:00;;;;;;;0.43;0.10;;;25.40;84.80;;;;;;4905696;29;20032;-74
2022/08/31 00:20:28;;;;;;;0.08;0.08;;;25.70;84.60;;;;;;4902436;29;20040;-74
2022/08/31 00:22:56;;;;;;;0.05;0.00;;;25.90;84.50;;;;;;4903106;29;20420;-74
2022/08/31 00:25:23;;;;;;;0.00;0.00;;;26.50;82.90;;;;;;4903191;29;20817;-73
2022/08/31 00:27:51;;;;;;;0.10;0.00;;;26.70;82.00;;;;;;4903079;29;20117;-75
2022/08/31 00:30:18;;;;;;;0.50;0.00;;;27.00;81.40;;;;;;4902719;29;20036;-71
2022/08/31 00:32:46;;;;;;;0.30;0.10;;;27.30;80.10;;;;;;4904006;29;20476;-72
2022/08/31 00:35:13;;;;;;;0.28;0.25;;;27.50;79.50;;;;;;4888290;29;20044;-76
2022/08/31 00:37:41;;;;;;;0.90;0.10;;;27.90;81.60;;;;;;4905251;29;22554;-77
2022/08/31 00:40:09;;;;;;;0.10;0.00;;;27.90;80.20;;;;;;4901385;29;20039;-71
2022/08/31 00:42:36;;;;;;;1.35;0.10;;;27.80;79.80;;;;;;4904118;29;20587;-72
2022/08/31 00:45:06;;;;;;;0.65;0.03;;;27.50;80.10;;;;;;4906562;29;20138;-72
2022/08/31 00:47:33;;;;;;;1.55;0.10;;;27.50;79.20;;;;;;4903154;29;20091;-70
2022/08/31 00:50:02;;;;;;;0.10;0.10;;;27.70;79.20;;;;;;4906193;29;20036;-74
2022/08/31 00:52:38;;;;;;;0.57;0.10;;;27.90;78.00;;;;;;4903110;29;20032;-73
2022/08/31 00:55:31;;;;;;;0.20;0.10;;;27.60;79.70;;;;;;4904404;29;20408;-74
2022/08/31 00:58:02;;;;;;;1.02;0.10;;;28.00;79.90;;;;;;4890482;29;20044;-72
2022/08/31 01:00:31;;;;;;;1.17;0.10;;;28.10;79.60;;;;;;4903981;29;20527;-73
2022/08/31 01:03:01;;;;;;;1.63;0.10;;;28.10;78.30;;;;;;4902134;29;20027;-71
2022/08/31 01:05:30;;;;;;;1.30;0.28;;;28.20;78.50;;;;;;4904508;29;20032;-73
2022/08/31 01:07:59;;;;;;;0.52;0.30;;;28.30;78.60;;;;;;4902399;29;20025;-73
2022/08/31 01:10:31;;;;;;;0.73;0.10;;;28.20;77.50;;;;;;4900610;29;20048;-73
2022/08/31 01:12:59;;;;;;;0.68;0.10;;;28.50;77.20;;;;;;4902609;29;20051;-72
2022/08/31 01:15:29;;;;;;;5.22;0.20;;;28.50;77.50;;;;;;4905383;29;20078;-73
2022/08/31 01:18:01;;;;;;;0.98;0.10;;;27.90;77.70;;;;;;4903024;29;20092;-73
2022/08/31 01:21:14;;;;;;;4.20;0.35;;;27.50;78.30;;;;;;4903271;29;20477;-73
2022/08/31 01:23:44;;;;;;;0.40;0.10;;;27.90;78.10;;;;;;4892469;29;20036;-73
2022/08/31 01:26:17;;;;;;;0.40;0.10;;;28.20;77.50;;;;;;4901461;29;20450;-74
2022/08/31 01:28:45;;;;;;;1.70;0.10;;;28.40;76.20;;;;;;4898865;29;20032;-73
2022/08/31 01:31:31;;;;;;;0.77;0.10;;;28.20;77.00;;;;;;4900953;29;20036;-75
2022/08/31 01:33:59;;;;;;;0.40;0.10;;;27.80;77.80;;;;;;4906543;29;20024;-74
2022/08/31 01:36:27;;;;;;;1.10;0.10;;;28.20;77.80;;;;;;4912198;29;20028;-76
2022/08/31 01:38:55;;;;;;;0.95;0.10;;;28.40;77.90;;;;;;4911128;29;20126;-74
2022/08/31 01:41:22;;;;;;;1.77;0.20;;;28.40;77.60;;;;;;4903436;29;20051;-74
2022/08/31 01:43:51;;;;;;;0.63;0.10;;;28.00;77.00;;;;;;4901914;29;20047;-73
2022/08/31 01:46:19;;;;;;;0.80;0.20;;;28.30;78.00;;;;;;4904265;29;20032;-73
2022/08/31 01:48:48;;;;;;;0.95;0.10;;;28.70;76.50;;;;;;4901091;29;20610;-72
2022/08/31 01:51:19;;;;;;;0.60;0.10;;;29.10;78.30;;;;;;4904595;29;20056;-72
2022/08/31 01:53:48;;;;;;;0.17;0.10;;;28.80;77.60;;;;;;4902000;29;20459;-72
2022/08/31 01:56:20;;;;;;;0.38;0.10;;;27.90;78.90;;;;;;4903216;29;20119;-73
2022/08/31 01:58:48;;;;;;;0.45;0.20;;;26.80;78.30;;;;;;4900366;29;20032;-76
2022/08/31 02:01:16;;;;;;;0.28;0.03;;;25.80;79.20;;;;;;4904997;29;20047;-75
2022/08/31 02:03:43;;;;;;;3.22;0.65;;;24.80;79.30;;;;;;4903058;29;20032;-73
2022/08/31 02:06:13;;;;;;;0.52;0.20;;;24.20;82.10;;;;;;4902659;29;20444;-74
2022/08/31 02:08:41;;;;;;;0.45;0.20;;;23.70;83.80;;;;;;4898618;29;20559;-74
2022/08/31 02:11:08;;;;;;;0.32;0.10;;;23.40;84.30;;;;;;4883837;29;20028;-72
2022/08/31 02:13:36;;;;;;;0.38;0.28;;;23.20;83.50;;;;;;4903091;29;20047;-73
2022/08/31 02:16:04;;;;;;;0.10;0.10;;;23.10;83.50;;;;;;4902526;29;20040;-73
2022/08/31 02:18:35;;;;;;;0.47;0.10;;;23.00;84.10;;;;;;4902624;29;20020;-74
2022/08/31 02:21:03;;;;;;;2.70;0.20;;;23.30;85.10;;;;;;4902987;29;20028;-73
2022/08/31 02:23:30;;;;;;;2.42;0.20;;;24.30;82.70;;;;;;4903697;29;20078;-74
2022/08/31 02:25:58;;;;;;;2.20;0.30;;;25.40;79.50;;;;;;4903180;29;20032;-74
2022/08/31 02:28:25;;;;;;;1.50;0.10;;;25.30;79.70;;;;;;4899179;29;20032;-73
2022/08/31 02:30:53;;;;;;;0.70;0.10;;;24.50;80.40;;;;;;4902802;29;20027;-76
2022/08/31 02:33:20;;;;;;;1.13;0.10;;;24.10;82.60;;;;;;4902873;29;20059;-76
2022/08/31 02:35:48;;;;;;;2.05;0.10;;;23.70;83.10;;;;;;4903685;29;20042;-78
2022/08/31 02:38:15;;;;;;;1.33;0.20;;;23.40;84.90;;;;;;4902076;29;20060;-74
2022/08/31 02:40:43;;;;;;;0.65;0.10;;;23.10;85.30;;;;;;4906519;29;20036;-74
2022/08/31 02:43:11;;;;;;;1.75;0.32;;;22.70;85.70;;;;;;4900858;29;20032;-71
2022/08/31 02:45:39;;;;;;;0.95;0.10;;;22.40;87.10;;;;;;4903656;29;20064;-72
2022/08/31 02:48:08;;;;;;;0.55;0.50;;;22.20;87.70;;;;;;4901052;29;20039;-71
2022/08/31 02:50:42;;;;;;;0.80;0.10;;;22.00;87.90;;;;;;4901975;29;20032;-72
2022/08/31 02:53:11;;;;;;;4.38;0.10;;;22.00;87.50;;;;;;4886305;29;20613;-73
2022/08/31 02:55:39;;;;;;;2.13;0.30;;;21.80;88.00;;;;;;4901140;29;20051;-71
2022/08/31 02:58:07;;;;;;;0.80;0.60;;;21.90;87.90;;;;;;4900417;29;20085;-74
2022/08/31 03:00:34;;;;;;;1.17;0.20;;;21.80;87.90;;;;;;4905130;29;20036;-74
2022/08/31 03:03:05;;;;;;;2.72;0.70;;;21.80;88.30;;;;;;4900324;29;20024;-71
2022/08/31 03:05:33;;;;;;;1.17;0.22;;;21.90;88.70;;;;;;4901066;29;20044;-72
2022/08/31 03:08:00;;;;;;;1.58;0.17;;;21.90;88.50;;;;;;4899982;29;20056;-73
2022/08/31 03:10:28;;;;;;;2.20;0.30;;;21.90;88.70;;;;;;4901864;29;20048;-72
2022/08/31 03:12:55;;;;;;;0.50;0.20;;;21.90;88.70;;;;;;4906036;29;20032;-72
2022/08/31 03:15:25;;;;;;;4.28;0.30;;;22.00;88.90;;;;;;4902232;29;20119;-71
2022/08/31 03:17:52;;;;;;;0.63;0.25;;;21.90;87.80;;;;;;4900803;29;20512;-72
2022/08/31 03:20:22;;;;;;;1.15;0.20;;;21.80;88.10;;;;;;4899489;29;20060;-72
2022/08/31 03:22:49;;;;;;;3.78;0.40;;;21.80;89.50;;;;;;4902184;29;20024;-74
2022/08/31 03:25:17;;;;;;;4.28;0.40;;;21.60;91.00;;;;;;4898986;29;20086;-72
2022/08/31 03:27:45;;;;;;;4.18;1.33;;;21.30;91.50;;;;;;4901861;29;20020;-72
2022/08/31 03:30:16;;;;;;;0.88;0.40;;;21.10;91.90;;;;;;4902810;29;20084;-73
2022/08/31 03:32:44;;;;;;;2.13;0.35;;;21.00;91.90;;;;;;4901392;29;20031;-72
2022/08/31 03:35:13;;;;;;;1.30;0.32;;;20.80;92.20;;;;;;4905605;29;20056;-73
2022/08/31 03:37:41;;;;;;;2.08;0.38;;;20.70;92.40;;;;;;4884046;29;20025;-73
2022/08/31 03:40:09;;;;;;;1.52;0.73;;;20.60;92.60;;;;;;4920524;29;20031;-71
2022/08/31 03:42:37;;;;;;;0.95;0.43;;;20.50;92.50;;;;;;4910171;29;20881;-73
2022/08/31 03:45:07;;;;;;;1.27;0.50;;;20.50;92.70;;;;;;4910430;29;20044;-74
2022/08/31 03:47:35;;;;;;;1.40;0.40;;;20.60;92.60;;;;;;4907548;29;20100;-73
2022/08/31 03:50:05;;;;;;;2.92;0.38;;;20.60;92.50;;;;;;4909590;29;20507;-75
2022/08/31 03:52:33;;;;;;;2.83;0.20;;;20.60;92.70;;;;;;4909621;29;20063;-75
2022/08/31 03:55:01;;;;;;;0.68;0.30;;;20.60;92.70;;;;;;4910268;29;20126;-73
2022/08/31 03:57:28;;;;;;;3.35;0.30;;;20.60;92.70;;;;;;4908203;29;20479;-74
2022/08/31 03:59:56;;;;;;;3.08;0.68;;;20.70;92.80;;;;;;4896782;29;20040;-73
2022/08/31 04:02:24;;;;;;;2.92;0.45;;;20.70;93.00;;;;;;4899587;29;20123;-72
2022/08/31 04:04:55;;;;;;;5.28;0.75;;;20.70;93.00;;;;;;4899700;29;20028;-74
2022/08/31 04:07:22;;;;;;;2.95;0.30;;;20.70;93.40;;;;;;4907638;29;20033;-74
2022/08/31 04:09:50;;;;;;;0.47;0.20;;;20.60;93.30;;;;;;4900586;29;20056;-74
2022/08/31 04:12:18;;;;;;;1.30;0.20;;;20.60;92.90;;;;;;4909561;29;20183;-73
2022/08/31 04:14:46;;;;;;;1.67;0.28;;;20.60;93.00;;;;;;4904553;29;20165;-73
2022/08/31 04:17:13;;;;;;;1.48;0.30;;;20.60;93.00;;;;;;4907845;29;20040;-74
2022/08/31 04:19:41;;;;;;;3.42;0.43;;;20.50;93.10;;;;;;4904774;29;20551;-72
2022/08/31 04:22:09;;;;;;;1.05;0.70;;;20.50;93.20;;;;;;4904486;29;20052;-72
2022/08/31 04:24:36;;;;;;;3.33;0.57;;;20.50;93.50;;;;;;4900505;29;20047;-73
2022/08/31 04:27:04;;;;;;;3.47;0.40;;;20.50;94.20;;;;;;4889681;29;20055;-73
2022/08/31 04:29:31;;;;;;;4.60;1.10;;;20.40;94.50;;;;;;4913176;29;20396;-72
2022/08/31 04:31:59;;;;;;;2.50;0.40;;;20.40;94.50;;;;;;4908684;29;20029;-72
2022/08/31 04:34:26;;;;;;;3.90;0.60;;;20.30;94.80;;;;;;4911390;29;20491;-72
2022/08/31 04:36:53;;;;;;;3.85;0.70;;;20.30;95.10;;;;;;4910813;29;20418;-74
2022/08/31 04:39:21;;;;;;;2.13;0.40;;;20.20;95.20;;;;;;4903462;29;20048;-71
2022/08/31 04:41:49;;;;;;;3.40;1.15;;;20.30;95.10;;;;;;4905866;29;20020;-75
2022/08/31 04:44:17;;;;;;;3.58;1.77;;;20.30;95.10;;;;;;4904142;29;20039;-72
2022/08/31 04:46:44;;;;;;;6.53;0.60;;;20.50;94.80;;;;;;4911671;29;20036;-73
2022/08/31 04:49:14;;;;;;;6.05;1.33;;;20.90;94.40;;;;;;4911618;29;20039;-73
2022/08/31 04:51:41;;;;;;;1.55;0.32;;;21.30;94.10;;;;;;4913272;29;20032;-73
2022/08/31 04:54:11;;;;;;;2.50;0.90;;;21.50;93.90;;;;;;4912063;29;20079;-74
2022/08/31 04:56:42;;;;;;;2.70;0.50;;;21.50;93.90;;;;;;4915658;29;20036;-73
2022/08/31 04:59:13;;;;;;;5.22;0.70;;;21.70;93.90;;;;;;4905816;29;20460;-74
2022/08/31 05:01:46;;;;;;;8.18;0.88;;;21.80;93.80;;;;;;4898810;29;20178;-73
2022/08/31 05:04:14;;;;;;;3.45;0.50;;;21.50;94.30;;;;;;4900253;29;20032;-73
2022/08/31 05:06:44;;;;;;;6.43;0.70;;;21.00;94.70;;;;;;4901700;29;20028;-75
2022/08/31 05:09:19;;;;;;;4.40;0.80;;;20.70;95.10;;;;;;4899263;29;20036;-75
2022/08/31 05:11:48;;;;;;;5.85;0.90;;;20.70;95.50;;;;;;4904568;29;20301;-73
2022/08/31 05:14:16;;;;;;;3.45;0.80;;;20.60;95.50;;;;;;4901644;29;20400;-73
2022/08/31 05:16:44;;;;;;;7.60;0.98;;;20.70;95.60;;;;;;4900598;29;20052;-73
2022/08/31 05:19:12;;;;;;;4.13;0.82;;;20.80;95.40;;;;;;4902196;29;20032;-72
2022/08/31 05:21:41;;;;;;;4.22;1.20;;;20.80;95.40;;;;;;4915169;29;20507;-73
2022/08/31 05:24:15;;;;;;;4.72;1.08;;;20.90;95.20;;;;;;4898627;29;20540;-73
2022/08/31 05:26:48;;;;;;;2.45;0.77;;;20.90;95.10;;;;;;4903656;29;20448;-72
2022/08/31 05:29:19;;;;;;;2.13;0.70;;;20.90;95.20;;;;;;4906051;29;20407;-74
2022/08/31 05:31:47;;;;;;;2.15;0.65;;;20.80;95.30;;;;;;4900982;29;20039;-75
2022/08/31 05:34:16;;;;;;;7.22;0.75;;;20.80;95.30;;;;;;4904315;29;20040;-73
2022/08/31 05:36:45;;;;;;;3.17;1.00;;;20.80;95.10;;;;;;4907695;29;20148;-74
2022/08/31 05:39:13;;;;;;;2.20;0.82;;;20.80;95.10;;;;;;4900179;29;20032;-73
2022/08/31 05:41:43;;;;;;;3.40;0.52;;;20.80;95.10;;;;;;4910438;29;20028;-73
2022/08/31 05:44:11;;;;;;;3.75;0.80;;;20.80;95.20;;;;;;4907307;29;20063;-73
2022/08/31 05:46:39;;;;;;;1.73;0.73;;;20.70;95.10;;;;;;4900935;29;20056;-75
2022/08/31 05:49:09;;;;;;;5.32;0.63;;;20.80;95.10;;;;;;4912860;29;20066;-75
2022/08/31 05:51:36;;;;;;;2.67;0.98;;;20.80;95.10;;;;;;4913191;29;20040;-73
2022/08/31 05:54:04;;;;;;;7.85;1.23;;;20.80;95.10;;;;;;4912988;29;20039;-74
2022/08/31 05:56:31;;;;;;;2.58;0.60;;;20.70;95.10;;;;;;4910609;29;20024;-75
2022/08/31 05:58:59;;;;;;;3.25;0.77;;;20.60;95.10;;;;;;4903623;29;20084;-74
2022/08/31 06:01:32;;;;;;;3.08;0.60;;;20.50;95.50;;;;;;4903274;29;20168;-75
2022/08/31 06:04:01;;;;;;;4.22;0.60;;;20.40;95.30;;;;;;4901662;29;20039;-74
2022/08/31 06:06:29;;;;;;;3.70;0.95;;;20.40;95.50;;;;;;4903699;29;20028;-76
2022/08/31 06:08:57;;;;;;;4.20;0.82;;;20.40;95.70;;;;;;4903068;29;20070;-76
2022/08/31 06:11:28;;;;;;;3.17;0.70;;;20.40;95.70;;;;;;4902924;29;20020;-75
2022/08/31 06:13:58;;;;;;;8.25;0.70;;;20.50;95.80;;;;;;4902042;29;20484;-75
2022/08/31 06:16:26;;;;;;;2.70;0.73;;;20.30;96.00;;;;;;4897331;29;20032;-74
2022/08/31 06:18:56;;;;;;;5.00;0.88;;;20.20;96.40;;;;;;4900500;29;20028;-74
2022/08/31 06:21:27;;;;;;;1.83;0.82;;;20.20;96.40;;;;;;4904509;29;20486;-76
2022/08/31 06:23:59;;;;;;;4.32;0.73;;;20.10;96.30;;;;;;4903398;29;20130;-74
2022/08/31 06:26:28;;;;;;;1.55;0.70;;;20.10;96.40;;;;;;4905552;29;20219;-74
2022/08/31 06:28:59;;;;;;;2.50;0.52;;;20.00;96.40;;;;;;4910845;29;20035;-75
2022/08/31 06:31:33;;;;;;;3.55;0.73;;;19.90;96.50;;;;;;4911159;29;20054;-74
2022/08/31 06:34:01;;;;;;;4.43;0.95;;;19.80;96.50;;;;;;4910144;29;20028;-74
2022/08/31 06:36:30;;;;;;;3.05;0.73;;;19.70;96.60;;;;;;4907346;29;20483;-73
2022/08/31 06:38:59;;;;;;;5.65;0.60;;;19.70;96.80;;;;;;4901675;29;20060;-74
2022/08/31 06:41:30;;;;;;;5.13;1.60;;;19.60;97.20;;;;;;4900833;29;21865;-76
2022/08/31 06:44:00;;;;;;;3.28;1.00;;;19.50;97.20;;;;;;4897860;29;20459;-73
2022/08/31 06:46:28;;;;;;;3.78;1.60;;;19.40;97.50;;;;;;4901005;29;20134;-74
2022/08/31 06:48:56;;;;;;;1.65;0.85;;;19.30;97.60;;;;;;4901577;29;20527;-75
2022/08/31 06:51:24;;;;;;;3.50;1.08;;;19.30;97.60;;;;;;4904207;29;20455;-72
2022/08/31 06:53:52;;;;;;;4.97;1.30;;;19.20;97.90;;;;;;4902168;29;20051;-74
2022/08/31 06:56:24;;;;;;;5.95;0.88;;;19.00;98.20;;;;;;4902759;29;20494;-74
2022/08/31 06:58:53;;;;;;;4.20;1.40;;;18.90;98.50;;;;;;4900814;29;20036;-73
2022/08/31 07:01:28;;;;;;;2.25;1.00;;;18.80;98.70;;;;;;4901452;29;20036;-74
2022/08/31 07:03:58;;;;;;;6.88;1.20;;;18.70;98.90;;;;;;4901176;29;20080;-71
2022/08/31 07:06:29;;;;;;;5.47;1.58;;;18.70;99.10;;;;;;4903053;29;20127;-73
2022/08/31 07:08:59;;;;;;;3.50;0.95;;;18.60;99.30;;;;;;4899306;29;20550;-73
2022/08/31 07:11:38;;;;;;;3.15;1.15;;;18.40;99.50;;;;;;4902355;29;20028;-75
2022/08/31 07:14:07;;;;;;;7.75;1.42;;;18.30;99.80;;;;;;4900235;29;20032;-75
2022/08/31 07:16:35;;;;;;;4.78;1.40;;;18.20;99.90;;;;;;4902429;29;20060;-74
2022/08/31 07:19:05;;;;;;;9.27;1.85;;;18.10;99.90;;;;;;4902696;29;20036;-74
2022/08/31 07:21:42;;;;;;;2.78;1.48;;;18.00;99.90;;;;;;4902188;29;20024;-73
2022/08/31 07:24:12;;;;;;;5.88;1.08;;;17.90;99.90;;;;;;4899495;29;20040;-75
2022/08/31 07:26:42;;;;;;;6.32;1.15;;;17.80;99.90;;;;;;4898204;29;20043;-75
2022/08/31 07:29:13;;;;;;;5.35;1.02;;;17.80;99.90;;;;;;4902257;29;20032;-73
2022/08/31 07:31:46;;;;;;;8.13;1.42;;;17.60;99.90;;;;;;4912604;29;20451;-75
2022/08/31 07:34:19;;;;;;;7.35;0.98;;;17.60;99.90;;;;;;4900785;29;20032;-72
2022/08/31 07:42:23;;;;;;;9.88;1.65;;;17.40;99.90;;;;;;4899932;29;20051;-73
2022/08/31 07:44:52;;;;;;;5.65;0.90;;;17.40;99.90;;;;;;4900603;29;20031;-73
2022/08/31 07:47:21;;;;;;;7.60;1.45;;;17.30;99.90;;;;;;4898711;29;20040;-73
2022/08/31 07:49:51;;;;;;;3.92;1.15;;;17.30;99.90;;;;;;4899051;29;20051;-73
2022/08/31 07:52:24;;;;;;;6.22;2.20;;;17.20;99.90;;;;;;4910966;29;20043;-72
2022/08/31 07:54:54;;;;;;;5.43;1.67;;;17.20;99.90;;;;;;4907931;29;20036;-73
2022/08/31 07:57:28;;;;;;;6.78;1.83;;;17.20;99.90;;;;;;4892164;29;20571;-74
2022/08/31 08:00:07;;;;;;;4.25;1.17;;;17.20;99.90;;;;;;4907062;29;20036;-75
2022/08/31 08:02:38;;;;;;;6.40;1.17;;;17.10;99.90;;;;;;4894220;29;20032;-75
2022/08/31 08:05:11;;;;;;;7.03;1.27;;;17.10;99.90;;;;;;4903791;29;20036;-76
2022/08/31 08:07:40;;;;;;;6.45;1.08;;;17.10;99.90;;;;;;4900633;29;20032;-74
2022/08/31 08:10:13;;;;;;;6.75;1.35;;;17.00;99.90;;;;;;4900567;29;20060;-74
2022/08/31 08:12:47;;;;;;;7.03;1.45;;;17.00;99.90;;;;;;4902070;29;20076;-73
2022/08/31 08:15:15;;;;;;;3.75;1.42;;;17.00;99.90;;;;;;4900047;29;20131;-73
2022/08/31 08:17:42;;;;;;;6.70;1.15;;;16.90;99.90;;;;;;4898419;29;20050;-75
2022/08/31 08:20:10;;;;;;;6.13;0.90;;;16.90;99.90;;;;;;4904294;29;20502;-74
2022/08/31 08:22:39;;;;;;;3.40;1.15;;;16.80;99.90;;;;;;4908863;29;20045;-75
2022/08/31 08:25:08;;;;;;;7.55;1.52;;;16.80;99.90;;;;;;4911493;29;20123;-75
2022/08/31 08:27:36;;;;;;;8.25;1.10;;;16.80;99.90;;;;;;4907965;29;20120;-74
2022/08/31 08:30:06;;;;;;;3.63;1.00;;;16.80;99.90;;;;;;4892964;29;20736;-73
2022/08/31 08:32:35;;;;;;;6.78;1.10;;;16.80;99.90;;;;;;4910893;29;20059;-74
2022/08/31 08:35:03;;;;;;;6.50;1.73;;;16.80;99.90;;;;;;4911005;29;20491;-74
2022/08/31 08:37:31;;;;;;;6.82;2.08;;;16.70;99.90;;;;;;4909983;29;20064;-75
2022/08/31 08:40:00;;;;;;;5.07;1.45;;;16.70;99.90;;;;;;4903448;29;20432;-74
2022/08/31 08:42:27;;;;;;;5.78;1.80;;;16.70;99.90;;;;;;4910508;29;20036;-74
2022/08/31 08:44:56;;;;;;;8.00;1.25;;;16.70;99.90;;;;;;4914513;29;21124;-75
2022/08/31 08:47:35;;;;;;;13.18;1.98;;;16.70;99.90;;;;;;4911546;29;20075;-73
2022/08/31 08:50:06;;;;;;;6.88;1.60;;;16.70;99.90;;;;;;4907012;29;20033;-74
2022/08/31 08:52:44;;;;;;;8.18;1.52;;;16.70;99.90;;;;;;4906409;29;20052;-75
2022/08/31 08:55:15;;;;;;;4.95;2.15;;;16.70;99.90;;;;;;4910138;29;20124;-74
2022/08/31 08:57:44;;;;;;;7.18;1.85;;;16.70;99.90;;;;;;4897291;29;20380;-75
2022/08/31 09:00:19;;;;;;;2.92;1.40;;;16.70;99.90;;;;;;4907477;29;20033;-75
2022/08/31 09:02:56;;;;;;;6.25;1.65;;;16.70;99.90;;;;;;4915554;29;20271;-75
2022/08/31 09:05:42;;;;;;;6.68;2.45;;;16.70;99.90;;;;;;4914510;29;20091;-73
2022/08/31 09:08:41;;;;;;;8.90;1.83;;;16.70;99.90;;;;;;4908692;29;20036;-75
2022/08/31 09:11:28;;;;;;;7.00;1.40;;;16.70;99.90;;;;;;4912136;29;20395;-76
2022/08/31 09:14:17;;;;;;;6.65;1.23;;;16.70;99.90;;;;;;4907527;29;20028;-72
2022/08/31 09:16:55;;;;;;;6.45;1.35;;;16.70;99.90;;;;;;4912103;29;20036;-75
2022/08/31 09:19:22;;;;;;;6.72;1.02;;;16.70;99.90;;;;;;4908048;29;20037;-76
2022/08/31 09:21:55;;;;;;;5.88;1.65;;;16.60;99.90;;;;;;4915894;29;20111;-74
2022/08/31 09:24:29;;;;;;;5.63;1.50;;;16.60;99.90;;;;;;4909993;29;20032;-77
2022/08/31 09:27:18;;;;;;;3.83;1.23;;;16.60;99.90;;;;;;4902095;29;20020;-73
2022/08/31 09:29:52;;;;;;;5.47;1.52;;;16.50;99.90;;;;;;4907311;29;20079;-77
2022/08/31 09:32:25;;;;;;;5.60;1.40;;;16.50;99.90;;;;;;4911274;29;20021;-76
2022/08/31 09:35:00;;;;;;;4.88;1.60;;;16.50;99.90;;;;;;4908331;29;20388;-75
2022/08/31 09:37:49;;;;;;;4.38;1.25;;;16.60;99.90;;;;;;4930560;29;20194;-74
2022/08/31 09:40:20;;;;;;;5.82;1.55;;;16.50;99.90;;;;;;4899975;29;20476;-74
2022/08/31 09:43:02;;;;;;;3.95;1.88;;;16.50;99.90;;;;;;4909099;29;20028;-74
2022/08/31 09:45:34;;;;;;;6.78;1.95;;;16.40;99.90;;;;;;4895462;29;20091;-74
2022/08/31 09:48:04;;;;;;;4.65;1.13;;;16.40;99.90;;;;;;4911843;29;20084;-74
2022/08/31 09:50:33;;;;;;;5.78;1.10;;;16.40;99.90;;;;;;4908244;29;20098;-73
2022/08/31 09:56:14;;;;;;;6.85;1.05;;;16.30;99.90;;;;;;4912320;29;20063;-74
2022/08/31 09:58:47;;;;;;;11.98;2.17;;;16.30;99.90;;;;;;4913533;29;20036;-77
2022/08/31 10:01:37;;;;;;;4.10;1.25;;;16.30;99.90;;;;;;4908097;29;20032;-74
2022/08/31 10:04:15;;;;;;;4.07;1.58;;;16.20;99.90;;;;;;4906290;29;20048;-74
2022/08/31 10:06:49;;;;;;;7.05;2.35;;;16.30;99.90;;;;;;4907549;29;20112;-74
2022/08/31 10:09:35;;;;;;;7.13;2.53;;;16.30;99.90;;;;;;4908175;29;20052;-75
2022/08/31 10:12:11;;;;;;;4.20;1.65;;;16.30;99.90;;;;;;4908406;29;20054;-74
2022/08/31 10:15:01;;;;;;;5.00;1.40;;;16.30;99.90;;;;;;4906130;29;20046;-74
2022/08/31 10:17:44;;;;;;;8.68;1.58;;;16.20;99.90;;;;;;4903404;29;20103;-77
2022/08/31 10:20:22;;;;;;;5.68;2.45;;;16.20;99.90;;;;;;4914551;29;20049;-75
2022/08/31 10:22:57;;;;;;;6.22;2.05;;;16.20;99.90;;;;;;4911534;29;20034;-74
2022/08/31 10:25:57;;;;;;;3.33;1.17;;;16.20;99.90;;;;;;4906747;29;20032;-76
2022/08/31 10:28:35;;;;;;;7.35;1.25;;;16.20;99.90;;;;;;4905003;29;20040;-73
2022/08/31 10:31:21;;;;;;;5.97;1.65;;;16.20;99.90;;;;;;4899034;29;20158;-74
2022/08/31 10:36:43;;;;;;;10.25;1.85;;;16.20;99.90;;;;;;4903867;29;20477;-74
2022/08/31 10:39:43;;;;;;;5.40;2.15;;;16.20;99.90;;;;;;4908345;29;20044;-75
2022/08/31 10:42:49;;;;;;;4.13;1.40;;;16.30;99.90;;;;;;4894473;29;20047;-78
2022/08/31 10:45:22;;;;;;;5.35;2.30;;;16.30;99.90;;;;;;4889688;29;20053;-75
2022/08/31 10:47:53;;;;;;;6.80;1.33;;;16.30;99.90;;;;;;4898305;29;20487;-74
2022/08/31 10:50:57;;;;;;;4.53;1.35;;;16.20;99.90;;;;;;4912550;29;20387;-74
2022/08/31 10:53:42;;;;;;;5.90;1.95;;;16.20;99.90;;;;;;4906455;29;20498;-79
2022/08/31 10:56:38;;;;;;;11.15;1.67;;;16.20;99.90;;;;;;4909653;29;20053;-72
2022/08/31 10:59:28;;;;;;;5.70;1.30;;;16.20;99.90;;;;;;4900215;29;20051;-76
2022/08/31 11:02:23;;;;;;;6.10;1.30;;;16.20;99.90;;;;;;4914011;29;20337;-76
2022/08/31 11:05:09;;;;;;;7.13;1.95;;;16.20;99.90;;;;;;4907980;29;20036;-75
2022/08/31 11:07:48;;;;;;;7.13;1.05;;;16.20;99.90;;;;;;4905509;29;20580;-77
2022/08/31 11:10:54;;;;;;;10.27;1.23;;;16.10;99.90;;;;;;4895834;29;20103;-74
2022/08/31 11:13:59;;;;;;;7.82;1.50;;;16.10;99.90;;;;;;4901596;29;20024;-75
2022/08/31 11:16:38;;;;;;;10.43;2.53;;;16.10;99.90;;;;;;4908747;29;20394;-75
2022/08/31 11:19:29;;;;;;;13.02;2.10;;;16.10;99.90;;;;;;4902509;29;20752;-75
2022/08/31 11:22:06;;;;;;;6.00;1.20;;;16.10;99.90;;;;;;4906118;29;20584;-76
2022/08/31 11:24:44;;;;;;;8.50;1.58;;;16.10;99.90;;;;;;4906127;29;20036;-75
2022/08/31 11:27:13;;;;;;;10.77;1.55;;;16.10;99.90;;;;;;4902009;29;20040;-75
2022/08/31 11:29:43;;;;;;;5.90;1.30;;;16.00;99.90;;;;;;4911533;29;20032;-78
2022/08/31 11:32:38;;;;;;;7.05;1.60;;;16.00;99.90;;;;;;4900281;29;20020;-76
2022/08/31 11:35:09;;;;;;;6.30;1.60;;;16.00;99.90;;;;;;4896303;29;20051;-77
2022/08/31 11:37:51;;;;;;;5.68;0.93;;;16.00;99.90;;;;;;4907872;29;20111;-78
2022/08/31 11:40:59;;;;;;;9.02;1.80;;;16.00;99.90;;;;;;4901656;29;20670;-75
2022/08/31 11:43:32;;;;;;;2.40;1.58;;;16.00;99.90;;;;;;4905639;29;20380;-75
2022/08/31 11:46:26;;;;;;;6.10;1.50;;;16.00;99.90;;;;;;4894931;29;20039;-78
2022/08/31 11:48:53;;;;;;;5.80;1.25;;;16.00;99.90;;;;;;4899503;29;20040;-74
2022/08/31 11:51:33;;;;;;;10.32;1.13;;;16.00;99.90;;;;;;4914356;29;20057;-74
2022/08/31 11:54:10;;;;;;;5.22;1.60;;;15.90;99.90;;;;;;4909283;29;20047;-77
2022/08/31 11:56:56;;;;;;;11.00;2.30;;;15.90;99.90;;;;;;4912867;29;20047;-76
2022/08/31 11:59:34;;;;;;;8.20;1.20;;;15.90;99.90;;;;;;4910368;29;20028;-76
2022/08/31 12:02:21;;;;;;;11.18;1.73;;;15.90;99.90;;;;;;4910888;29;20127;-77
2022/08/31 12:05:01;;;;;;;6.88;1.85;;;15.90;99.90;;;;;;4890521;29;20043;-75
2022/08/31 12:07:29;;;;;;;6.20;1.60;;;15.80;99.90;;;;;;4900756;29;20066;-77
2022/08/31 12:09:59;;;;;;;9.10;2.15;;;15.90;99.90;;;;;;4911010;29;20051;-76
2022/08/31 12:12:44;;;;;;;4.15;1.20;;;15.90;99.90;;;;;;4902713;29;20062;-78
2022/08/31 12:15:47;;;;;;;8.10;1.83;;;15.90;99.90;;;;;;4906653;29;20040;-77
2022/08/31 12:18:32;;;;;;;5.65;1.17;;;15.90;99.90;;;;;;4903214;29;20352;-76
2022/08/31 12:24:21;;;;;;;7.20;1.27;;;15.90;99.90;;;;;;4902007;29;20047;-75
2022/08/31 12:27:06;;;;;;;7.10;1.60;;;15.90;99.90;;;;;;4906625;29;20416;-75
2022/08/31 12:29:36;;;;;;;7.88;1.30;;;15.90;99.90;;;;;;4905511;29;20460;-75
2022/08/31 12:32:07;;;;;;;10.50;1.42;;;15.90;99.90;;;;;;4913251;29;20032;-74
2022/08/31 12:34:43;;;;;;;6.53;1.80;;;15.90;99.90;;;;;;4908562;29;20044;-75
2022/08/31 12:37:24;;;;;;;8.70;1.95;;;15.80;99.90;;;;;;4904517;29;20025;-76
2022/08/31 12:40:16;;;;;;;12.85;1.63;;;15.80;99.90;;;;;;4906160;29;20107;-75
2022/08/31 12:43:04;;;;;;;8.23;1.10;;;15.80;99.90;;;;;;4894179;29;20069;-76
2022/08/31 12:45:44;;;;;;;5.78;1.25;;;15.80;99.90;;;;;;4898510;29;20056;-76
2022/08/31 12:48:48;;;;;;;7.97;1.55;;;15.80;99.90;;;;;;4897046;29;20035;-76
2022/08/31 12:51:44;;;;;;;6.15;1.40;;;15.80;99.90;;;;;;4914915;29;20114;-72
2022/08/31 12:54:21;;;;;;;9.57;1.38;;;15.80;99.90;;;;;;4911708;29;20120;-75
2022/08/31 12:57:12;;;;;;;5.82;0.80;;;15.80;99.90;;;;;;4914265;29;20083;-77
2022/08/31 12:59:52;;;;;;;14.63;1.70;;;15.80;99.90;;;;;;4918124;29;20046;-74
2022/08/31 13:02:19;;;;;;;8.30;1.58;;;15.80;99.90;;;;;;4908599;29;20032;-77
2022/08/31 13:04:48;;;;;;;11.27;1.63;;;15.80;99.90;;;;;;4911900;29;20389;-77
2022/08/31 13:07:28;;;;;;;7.88;1.63;;;15.80;99.90;;;;;;4911856;29;20143;-76
2022/08/31 13:10:07;;;;;;;10.63;1.30;;;15.70;99.90;;;;;;4910746;29;20048;-76
2022/08/31 13:12:35;;;;;;;6.20;1.70;;;15.70;99.90;;;;;;4909174;29;20384;-78
2022/08/31 13:15:04;;;;;;;5.68;1.75;;;15.70;99.90;;;;;;4910148;29;20043;-78
2022/08/31 13:17:38;;;;;;;8.43;1.35;;;15.70;99.90;;;;;;4909540;29;20043;-77
2022/08/31 13:20:06;;;;;;;7.57;1.40;;;15.70;99.90;;;;;;4903889;29;20139;-76
2022/08/31 13:22:41;;;;;;;3.35;0.98;;;15.70;99.90;;;;;;4908654;29;20407;-78
2022/08/31 13:25:42;;;;;;;6.40;0.80;;;15.70;99.90;;;;;;4910864;29;20036;-77
2022/08/31 13:28:13;;;;;;;10.73;1.33;;;15.70;99.90;;;;;;4905816;29;20432;-78
2022/08/31 13:30:42;;;;;;;4.78;0.80;;;15.70;99.90;;;;;;4902060;29;20016;-77
2022/08/31 13:33:39;;;;;;;10.25;1.75;;;15.70;99.90;;;;;;4910258;29;20043;-75
2022/08/31 13:36:30;;;;;;;7.90;1.00;;;15.70;99.90;;;;;;4876860;29;20053;-76